createdAt,value
2019-03-22T00:02:02.702Z,21.50
2019-03-22T00:04:33.555Z,19.77
2019-03-22T00:07:04.413Z,20.08
2019-03-22T00:09:35.050Z,19.52
2019-03-22T00:14:37.129Z,19.90
2019-03-22T00:17:07.940Z,21.73
2019-03-22T00:19:38.796Z,21.45
2019-03-22T00:22:09.550Z,21.57
2019-03-22T00:24:40.186Z,21.35
2019-03-22T00:29:41.899Z,21.45
2019-03-22T00:32:12.668Z,21.75
2019-03-22T00:34:43.305Z,23.02
2019-03-22T00:37:14.177Z,24.12
2019-03-22T00:39:45.031Z,25.57
2019-03-22T00:42:15.784Z,24.77
2019-03-22T00:44:46.436Z,26.55
2019-03-22T00:47:17.298Z,23.30
2019-03-22T00:49:48.047Z,23.65
2019-03-22T00:52:18.798Z,23.65
2019-03-22T00:54:49.654Z,24.00
2019-03-22T00:57:28.370Z,25.48
2019-03-22T00:59:52.479Z,27.42
2019-03-22T01:02:23.191Z,25.95
2019-03-22T01:04:53.900Z,29.75
2019-03-22T01:07:24.755Z,26.93
2019-03-22T01:09:55.393Z,26.68
2019-03-22T01:12:26.143Z,26.62
2019-03-22T01:14:57.019Z,26.68
2019-03-22T01:17:27.876Z,25.60
2019-03-22T01:19:58.627Z,25.48
2019-03-22T01:22:29.280Z,26.82
2019-03-22T01:25:01.568Z,29.00
2019-03-22T01:27:40.215Z,31.27
2019-03-22T01:30:09.309Z,30.75
2019-03-22T01:32:40.170Z,30.57
2019-03-22T01:35:11.025Z,34.13
2019-03-22T01:37:41.680Z,30.27
2019-03-22T01:40:13.131Z,34.73
2019-03-22T01:42:43.494Z,39.73
2019-03-22T01:45:15.238Z,43.15
2019-03-22T01:47:45.720Z,51.98
2019-03-22T01:50:17.262Z,41.33
2019-03-22T01:52:47.633Z,35.70
2019-03-22T01:55:18.387Z,31.23
2019-03-22T01:57:53.713Z,31.90
2019-03-22T02:00:21.228Z,28.65
2019-03-22T02:02:52.061Z,28.57
2019-03-22T02:05:22.715Z,27.62
2019-03-22T02:07:53.485Z,28.10
2019-03-22T02:10:24.137Z,26.62
2019-03-22T02:12:56.119Z,27.58
2019-03-22T02:15:26.978Z,28.15
2019-03-22T02:17:57.712Z,28.92
2019-03-22T02:20:28.361Z,26.70
2019-03-22T02:25:28.742Z,26.60
2019-03-22T02:28:04.113Z,27.87
2019-03-22T02:30:31.820Z,27.93
2019-03-22T02:33:02.658Z,29.10
2019-03-22T02:35:33.437Z,31.17
2019-03-22T02:38:04.177Z,33.78
2019-03-22T02:40:34.924Z,33.28
2019-03-22T02:43:05.671Z,33.67
2019-03-22T02:45:36.315Z,32.95
2019-03-22T02:48:07.081Z,34.30
2019-03-22T02:50:37.944Z,32.40
2019-03-22T02:53:08.794Z,32.70
2019-03-22T02:55:39.546Z,33.33
2019-03-22T02:58:20.692Z,37.42
2019-03-22T03:00:42.386Z,33.23
2019-03-22T03:03:13.246Z,40.50
2019-03-22T03:05:43.900Z,44.38
2019-03-22T03:08:14.549Z,42.08
2019-03-22T03:10:45.416Z,40.58
2019-03-22T03:13:17.283Z,41.53
2019-03-22T03:15:48.015Z,43.85
2019-03-22T03:18:18.787Z,42.50
2019-03-22T03:20:49.418Z,42.50
2019-03-22T03:23:20.193Z,42.70
2019-03-22T03:25:50.828Z,41.58
2019-03-22T03:28:35.699Z,39.35
2019-03-22T03:30:53.683Z,38.30
2019-03-22T03:35:54.267Z,37.93
2019-03-22T03:40:54.954Z,37.40
2019-03-22T03:43:25.711Z,38.13
2019-03-22T03:45:56.567Z,35.43
2019-03-22T03:48:27.305Z,34.18
2019-03-22T03:50:58.079Z,32.60
2019-03-22T03:53:28.727Z,31.30
2019-03-22T03:55:59.581Z,30.52
2019-03-22T03:58:30.334Z,30.48
2019-03-22T04:01:01.089Z,30.25
2019-03-22T04:03:31.625Z,33.28
2019-03-22T04:06:03.119Z,33.15
2019-03-22T04:08:33.460Z,35.58
2019-03-22T04:13:34.944Z,34.88
2019-03-22T04:16:05.818Z,33.92
2019-03-22T04:18:36.455Z,36.73
2019-03-22T04:23:37.056Z,34.85
2019-03-22T04:26:07.707Z,35.48
2019-03-22T04:28:38.445Z,34.73
2019-03-22T04:31:09.207Z,39.75
2019-03-22T04:33:39.853Z,43.60
2019-03-22T04:36:10.515Z,41.88
2019-03-22T04:41:11.205Z,37.80
2019-03-22T04:43:41.860Z,37.05
2019-03-22T04:46:12.493Z,34.60
2019-03-22T04:48:43.246Z,34.55
2019-03-22T04:51:13.895Z,34.55
2019-03-22T04:53:45.779Z,37.08
2019-03-22T04:56:16.916Z,36.35
2019-03-22T04:58:47.406Z,34.33
2019-03-22T05:01:18.977Z,34.10
2019-03-22T05:03:49.820Z,33.20
2019-03-22T05:06:20.586Z,32.85
2019-03-22T05:08:51.340Z,32.17
2019-03-22T05:11:21.993Z,33.40
2019-03-22T05:13:53.871Z,31.65
2019-03-22T05:16:24.729Z,30.72
2019-03-22T05:18:55.360Z,29.07
2019-03-22T05:21:26.012Z,30.08
2019-03-22T05:26:27.338Z,33.48
2019-03-22T05:28:57.679Z,32.23
2019-03-22T05:31:31.588Z,31.70
2019-03-22T05:34:02.358Z,31.45
2019-03-22T05:36:33.109Z,30.75
2019-03-22T05:39:05.497Z,30.15
2019-03-22T05:41:36.462Z,31.12
2019-03-22T05:44:07.218Z,30.92
2019-03-22T05:46:37.744Z,29.95
2019-03-22T05:49:08.495Z,30.72
2019-03-22T05:51:39.253Z,29.60
2019-03-22T05:54:10.022Z,30.50
2019-03-22T05:56:40.673Z,28.67
2019-03-22T05:59:11.531Z,31.35
2019-03-22T06:01:42.285Z,31.70
2019-03-22T06:04:13.039Z,32.20
2019-03-22T06:06:43.692Z,31.07
2019-03-22T06:09:14.547Z,31.50
2019-03-22T06:11:45.178Z,30.80
2019-03-22T06:14:16.873Z,32.20
2019-03-22T06:16:47.507Z,32.55
2019-03-22T06:19:18.275Z,33.45
2019-03-22T06:21:49.131Z,31.00
2019-03-22T06:24:22.213Z,31.48
2019-03-22T06:26:52.178Z,32.40
2019-03-22T06:29:22.826Z,32.20
2019-03-22T06:31:53.684Z,32.58
2019-03-22T06:34:24.322Z,32.05
2019-03-22T06:36:54.967Z,30.85
2019-03-22T06:39:25.739Z,32.08
2019-03-22T06:41:56.594Z,30.72
2019-03-22T06:44:27.333Z,31.35
2019-03-22T06:46:58.103Z,29.15
2019-03-22T06:49:28.859Z,29.77
2019-03-22T06:51:59.508Z,29.75
2019-03-22T06:54:31.748Z,29.98
2019-03-22T06:57:02.958Z,30.95
2019-03-22T06:59:33.610Z,29.50
2019-03-22T07:02:04.465Z,30.65
2019-03-22T07:04:35.232Z,29.20
2019-03-22T07:07:05.977Z,30.05
2019-03-22T07:09:36.713Z,27.93
2019-03-22T07:12:07.576Z,28.07
2019-03-22T07:14:38.338Z,28.65
2019-03-22T07:17:08.791Z,28.38
2019-03-22T07:22:09.158Z,26.57
2019-03-22T07:24:40.639Z,28.60
2019-03-22T07:27:11.088Z,29.02
2019-03-22T07:29:42.130Z,27.73
2019-03-22T07:32:13.002Z,28.07
2019-03-22T07:34:43.861Z,28.60
2019-03-22T07:37:14.612Z,38.88
2019-03-22T07:39:45.144Z,34.65
2019-03-22T07:42:17.586Z,33.85
2019-03-22T07:44:48.204Z,28.20
2019-03-22T07:47:18.937Z,35.45
2019-03-22T07:49:49.606Z,28.50
2019-03-22T07:52:20.467Z,26.37
2019-03-22T07:54:51.098Z,27.73
2019-03-22T07:57:21.873Z,25.40
2019-03-22T07:59:52.525Z,25.17
2019-03-22T08:02:25.525Z,25.25
2019-03-22T08:04:55.877Z,24.18
2019-03-22T08:07:26.623Z,21.95
2019-03-22T08:09:57.465Z,24.57
2019-03-22T08:12:28.442Z,23.75
2019-03-22T08:15:00.384Z,21.30
2019-03-22T08:17:31.296Z,21.48
2019-03-22T08:20:11.309Z,22.45
2019-03-22T08:22:41.989Z,22.13
2019-03-22T08:25:15.503Z,20.00
2019-03-22T08:27:46.246Z,23.45
2019-03-22T08:30:28.660Z,22.60
2019-03-22T08:32:58.998Z,20.00
2019-03-22T08:35:29.675Z,19.10
2019-03-22T08:38:00.730Z,19.45
2019-03-22T08:40:31.487Z,21.27
2019-03-22T08:43:02.340Z,18.62
2019-03-22T08:45:33.198Z,14.47
2019-03-22T08:48:03.982Z,15.72
2019-03-22T08:50:34.684Z,13.65
2019-03-22T08:53:05.605Z,12.95
2019-03-22T08:55:36.416Z,11.88
2019-03-22T08:58:07.151Z,15.93
2019-03-22T09:00:39.626Z,17.05
2019-03-22T09:03:10.139Z,10.98
2019-03-22T09:05:40.889Z,14.33
2019-03-22T09:08:11.517Z,14.10
2019-03-22T09:10:42.503Z,12.45
2019-03-22T09:13:13.337Z,9.13
2019-03-22T09:15:45.018Z,11.65
2019-03-22T09:18:15.929Z,7.33
2019-03-22T09:20:46.724Z,6.83
2019-03-22T09:23:17.575Z,7.90
2019-03-22T09:25:48.013Z,8.35
2019-03-22T09:28:18.784Z,7.33
2019-03-22T09:30:49.628Z,8.18
2019-03-22T09:33:20.522Z,8.83
2019-03-22T09:35:51.404Z,10.43
2019-03-22T09:38:22.197Z,11.43
2019-03-22T09:40:52.850Z,12.33
2019-03-22T09:43:23.807Z,15.95
2019-03-22T09:45:54.566Z,13.13
2019-03-22T09:48:25.747Z,10.65
2019-03-22T09:50:56.694Z,12.13
2019-03-22T09:53:30.307Z,10.78
2019-03-22T09:55:59.726Z,10.95
2019-03-22T09:58:30.583Z,10.40
2019-03-22T10:01:01.299Z,12.00
2019-03-22T10:03:31.990Z,12.13
2019-03-22T10:06:02.827Z,12.90
2019-03-22T10:08:35.234Z,11.80
2019-03-22T10:11:06.129Z,12.20
2019-03-22T10:13:37.505Z,11.83
2019-03-22T10:16:09.279Z,11.00
2019-03-22T10:18:40.097Z,11.15
2019-03-22T10:21:21.948Z,12.30
2019-03-22T10:23:43.585Z,12.60
2019-03-22T10:26:14.002Z,12.93
2019-03-22T10:28:44.841Z,14.55
2019-03-22T10:31:15.701Z,16.15
2019-03-22T10:33:47.996Z,15.75
2019-03-22T10:38:50.440Z,14.80
2019-03-22T10:41:20.556Z,18.85
2019-03-22T10:43:51.329Z,22.00
2019-03-22T10:46:22.120Z,20.43
2019-03-22T10:48:53.066Z,21.55
2019-03-22T10:51:23.834Z,15.55
2019-03-22T10:53:54.670Z,15.58
2019-03-22T10:56:25.593Z,16.60
2019-03-22T10:58:56.344Z,18.17
2019-03-22T11:01:27.101Z,16.60
2019-03-22T11:03:58.566Z,16.05
2019-03-22T11:06:28.997Z,15.50
2019-03-22T11:08:59.648Z,17.65
2019-03-22T11:11:30.520Z,16.50
2019-03-22T11:14:01.383Z,14.63
2019-03-22T11:16:33.137Z,14.28
2019-03-22T11:19:04.300Z,17.90
2019-03-22T11:21:34.955Z,16.95
2019-03-22T11:24:05.827Z,16.30
2019-03-22T11:26:36.581Z,15.53
2019-03-22T11:29:07.234Z,12.23
2019-03-22T11:31:40.232Z,10.08
2019-03-22T11:34:22.562Z,11.57
2019-03-22T15:18:40.004Z,32.60
2019-03-22T15:21:31.747Z,28.92
2019-03-22T15:24:20.294Z,42.27
2019-03-22T15:26:59.533Z,33.80
2019-03-22T15:29:31.934Z,33.90
2019-03-22T15:32:07.907Z,36.85
2019-03-22T15:34:39.977Z,43.48
2019-03-22T15:37:15.441Z,44.73
2019-03-22T15:39:48.342Z,40.92
2019-03-22T15:42:19.301Z,43.05
2019-03-22T15:44:49.875Z,43.83
2019-03-22T15:47:20.808Z,39.65
2019-03-22T15:49:51.456Z,47.27
2019-03-22T15:52:22.931Z,40.85
2019-03-22T15:54:54.451Z,49.05
2019-03-22T15:57:25.870Z,41.98
2019-03-22T15:59:56.416Z,42.55
2019-03-22T16:02:27.523Z,44.53
2019-03-22T16:05:00.975Z,43.87
2019-03-22T16:07:31.830Z,36.63
2019-03-22T16:10:02.703Z,33.20
2019-03-22T16:12:33.440Z,41.55
2019-03-22T16:15:11.661Z,10.08
2019-03-22T16:17:42.533Z,5.22
2019-03-22T16:20:14.481Z,6.28
2019-03-22T16:22:45.456Z,3.75
2019-03-22T16:25:15.814Z,3.83
2019-03-22T16:30:16.300Z,3.73
2019-03-22T16:32:46.951Z,4.47
2019-03-22T16:35:17.609Z,4.47
2019-03-22T16:37:48.284Z,4.42
2019-03-22T16:40:24.091Z,5.28
2019-03-22T16:42:50.991Z,5.92
2019-03-22T16:45:40.563Z,8.15
2019-03-22T16:48:11.299Z,9.10
2019-03-22T16:50:42.281Z,9.73
2019-03-22T16:53:12.810Z,9.10
2019-03-22T16:55:43.565Z,9.35
2019-03-22T16:58:14.333Z,8.25
2019-03-22T17:00:44.984Z,5.10
2019-03-22T17:03:15.641Z,3.98
2019-03-22T17:05:46.272Z,3.83
2019-03-22T17:08:16.822Z,3.40
2019-03-22T17:13:17.514Z,4.28
2019-03-22T17:15:48.057Z,4.05
2019-03-22T17:20:49.582Z,3.70
2019-03-22T17:23:20.337Z,3.58
2019-03-22T17:25:50.868Z,3.60
2019-03-22T17:30:51.479Z,4.08
2019-03-22T17:33:22.007Z,3.77
2019-03-22T17:38:22.616Z,4.08
2019-03-22T17:40:53.263Z,4.22
2019-03-22T17:43:23.897Z,3.87
2019-03-22T17:48:24.380Z,3.08
2019-03-22T17:53:24.781Z,3.93
2019-03-22T17:58:25.250Z,4.15
2019-03-22T18:03:25.638Z,3.53
2019-03-22T18:08:26.133Z,3.90
2019-03-22T18:13:27.348Z,3.75
2019-03-22T18:15:58.190Z,4.45
2019-03-22T18:20:59.375Z,4.87
2019-03-22T18:23:35.711Z,4.25
2019-03-22T18:26:02.437Z,5.92
2019-03-22T18:28:33.188Z,6.12
2019-03-22T18:31:04.045Z,4.92
2019-03-22T18:33:34.695Z,5.37
2019-03-22T18:36:05.227Z,5.00
2019-03-22T18:41:05.833Z,4.62
2019-03-22T18:43:36.482Z,4.03
2019-03-22T18:46:07.014Z,4.20
2019-03-22T18:48:37.582Z,4.08
2019-03-22T18:51:08.133Z,3.33
2019-03-22T18:56:08.598Z,3.83
2019-03-22T18:58:39.147Z,3.20
2019-03-22T19:03:39.431Z,3.22
2019-03-22T19:06:10.097Z,3.30
2019-03-22T19:11:10.583Z,2.77
2019-03-22T19:16:11.050Z,3.45
2019-03-22T19:21:12.459Z,3.95
2019-03-22T19:23:42.918Z,4.30
2019-03-22T19:26:13.467Z,3.37
2019-03-22T19:31:13.954Z,3.25
2019-03-22T19:36:14.950Z,3.10
2019-03-22T19:41:16.951Z,2.93
2019-03-22T19:43:47.516Z,2.75
2019-03-22T19:46:18.048Z,3.05
2019-03-22T19:51:18.535Z,2.40
2019-03-22T19:56:19.141Z,2.00
2019-03-22T19:58:49.795Z,2.20
2019-03-22T20:01:20.442Z,2.62
2019-03-22T20:03:51.199Z,2.22
2019-03-22T20:06:21.541Z,2.60
2019-03-22T20:11:22.175Z,2.93
2019-03-22T20:13:52.661Z,2.83
2019-03-22T20:18:52.963Z,2.90
2019-03-22T20:21:24.531Z,2.77
2019-03-22T20:23:55.267Z,2.85
2019-03-22T20:26:25.817Z,3.15
2019-03-22T20:28:56.384Z,3.25
2019-03-22T20:33:56.953Z,3.30
2019-03-22T20:38:57.354Z,3.90
2019-03-22T20:41:28.007Z,3.77
2019-03-22T20:46:28.493Z,4.17
2019-03-22T20:48:59.145Z,4.60
2019-03-22T20:51:29.796Z,3.40
2019-03-22T20:54:00.446Z,3.83
2019-03-22T20:56:30.977Z,3.33
2019-03-22T21:01:31.479Z,3.27
2019-03-22T21:06:31.985Z,3.05
2019-03-22T21:11:32.452Z,3.20
2019-03-22T21:16:32.917Z,2.67
2019-03-22T21:21:36.573Z,2.40
2019-03-22T21:24:05.502Z,2.55
2019-03-22T21:29:05.765Z,2.33
2019-03-22T21:34:06.325Z,2.30
2019-03-22T21:36:37.022Z,2.45
2019-03-22T21:41:37.386Z,2.43
2019-03-22T21:46:37.992Z,1.57
2019-03-22T21:51:38.474Z,2.02
2019-03-22T21:56:40.291Z,2.20
2019-03-22T21:59:10.737Z,2.05
2019-03-22T22:01:41.387Z,2.30
2019-03-22T22:04:12.041Z,2.27
2019-03-22T22:06:42.691Z,3.05
2019-03-22T22:11:43.059Z,2.20
2019-03-22T22:16:43.659Z,2.67
2019-03-22T22:19:14.316Z,2.55
2019-03-22T22:21:44.844Z,1.85
2019-03-22T22:24:15.627Z,3.22
2019-03-22T22:26:46.284Z,3.05
2019-03-22T22:29:16.921Z,2.50
2019-03-22T22:31:47.570Z,3.20
2019-03-22T22:36:48.058Z,3.47
2019-03-22T22:41:48.423Z,3.27
2019-03-22T22:46:48.358Z,3.87
2019-03-22T22:49:18.694Z,3.22
2019-03-22T22:51:49.010Z,3.58
2019-03-22T22:54:19.427Z,4.12
2019-03-22T22:59:20.032Z,3.43
2019-03-22T23:04:20.399Z,4.73
2019-03-22T23:06:51.069Z,5.42
2019-03-22T23:09:21.823Z,5.92
2019-03-22T23:11:52.574Z,4.78
2019-03-22T23:14:23.208Z,4.05
2019-03-22T23:19:23.712Z,3.17
2019-03-22T23:21:54.361Z,3.55
2019-03-22T23:24:25.013Z,3.37
2019-03-22T23:26:55.666Z,3.05
2019-03-22T23:29:26.203Z,3.33
2019-03-22T23:34:26.579Z,4.40
2019-03-22T23:39:27.083Z,4.63
2019-03-22T23:41:57.821Z,2.80
2019-03-22T23:44:28.692Z,2.75
2019-03-22T23:46:59.345Z,2.47
2019-03-22T23:51:59.828Z,2.05
2019-03-22T23:54:30.366Z,1.90
2019-03-22T23:57:00.931Z,2.05
2019-03-22T23:59:31.482Z,2.22
